Time;durP1;ratioP1;P1;durP2;ratioP2;P2;SDS_P1;SDS_P2;PMS_P1;PMS_P2;Temp;Humidity;BMP_temperature;BMP_pressure;BME280_temperature;BME280_humidity;BME280_pressure;Samples;Min_cycle;Max_cycle;Signal;HPM_P1;HPM_P2
2022/12/23 00:01:59;;;;;;;;;;;10.90;90.50;;;;;;5054955;28;19913;-78
2022/12/23 00:04:24;;;;;;;;;;;10.90;89.40;;;;;;5055687;28;20326;-78
2022/12/23 00:06:50;;;;;;;;;;;10.80;89.60;;;;;;5055022;28;19960;-78
2022/12/23 00:09:27;;;;;;;;;;;10.80;92.50;;;;;;5070815;28;19913;-79
2022/12/23 00:17:25;;;;;;;;;;;11.00;88.80;;;;;;5071578;28;19919;-78
2022/12/23 00:20:15;;;;;;;;;;;11.00;84.70;;;;;;5067796;28;19920;-83
2022/12/23 00:29:08;;;;;;;;;;;11.00;83.80;;;;;;5065119;28;19931;-83
2022/12/23 00:34:38;;;;;;;;;;;11.00;72.30;;;;;;5051371;28;20027;-79
2022/12/23 00:37:04;;;;;;;;;;;11.00;74.00;;;;;;5054871;28;19943;-77
2022/12/23 00:45:14;;;;;;;;;;;11.10;72.80;;;;;;5054425;28;20059;-77
2022/12/23 00:50:45;;;;;;;;;;;11.20;63.80;;;;;;5026478;28;19917;-78
2022/12/23 00:53:10;;;;;;;;;;;11.20;57.90;;;;;;5021200;28;19963;-77
2022/12/23 00:55:39;;;;;;;;;;;11.30;56.00;;;;;;5017043;28;20008;-78
2022/12/23 00:58:38;;;;;;;;;;;11.30;53.00;;;;;;5012691;28;19913;-78
2022/12/23 01:07:15;;;;;;;;;;;11.30;43.00;;;;;;5025307;28;20304;-78
2022/12/23 01:09:40;;;;;;;;;;;11.40;43.10;;;;;;5021042;28;19917;-78
2022/12/23 01:12:15;;;;;;;;;;;11.40;43.10;;;;;;5020434;28;19917;-78
2022/12/23 01:15:03;;;;;;;;;;;11.40;43.10;;;;;;5012356;28;19910;-77
2022/12/23 01:17:39;;;;;;;;;;;11.40;43.10;;;;;;4993101;28;19965;-77
2022/12/23 01:20:04;;;;;;;;;;;11.40;43.10;;;;;;5026256;28;19921;-78
2022/12/23 01:22:33;;;;;;;;;;;11.40;43.10;;;;;;5021839;28;19910;-77
2022/12/23 01:25:03;;;;;;;;;;;11.40;43.20;;;;;;5030652;28;19917;-77
2022/12/23 01:27:28;;;;;;;;;;;11.50;43.40;;;;;;5054414;28;19910;-78
2022/12/23 01:30:21;;;;;;;;;;;11.40;43.10;;;;;;5053821;28;19909;-77
2022/12/23 01:33:21;;;;;;;;;;;11.40;43.10;;;;;;5054015;28;20058;-78
2022/12/23 01:36:17;;;;;;;;;;;11.40;43.10;;;;;;5058108;28;19919;-79
2022/12/23 01:38:45;;;;;;;;;;;11.40;43.10;;;;;;5022802;28;20347;-78
2022/12/23 01:44:27;;;;;;;;;;;11.20;43.00;;;;;;5016708;28;20001;-78
2022/12/23 01:47:11;;;;;;;;;;;11.20;43.00;;;;;;5012467;28;19925;-77
2022/12/23 01:49:39;;;;;;;;;;;11.20;43.00;;;;;;4999395;28;19920;-77
2022/12/23 01:52:39;;;;;;;;;;;11.20;43.10;;;;;;5004112;28;19916;-82
2022/12/23 02:13:29;;;;;;;;;;;10.80;77.10;;;;;;5011357;28;19919;-83
2022/12/23 02:16:27;;;;;;;;;;;10.90;79.30;;;;;;4985018;28;19913;-83
2022/12/23 02:22:18;;;;;;;;;;;10.80;81.60;;;;;;4992642;28;19952;-77
2022/12/23 02:27:46;;;;;;;;;;;10.90;78.50;;;;;;4976167;28;19925;-78
2022/12/23 02:30:33;;;;;;;;;;;10.90;76.10;;;;;;5002482;28;20341;-78
2022/12/23 02:33:27;;;;;;;;;;;10.80;74.90;;;;;;4987900;28;19910;-77
2022/12/23 02:39:15;;;;;;;;;;;10.90;76.30;;;;;;4990848;28;19956;-77
2022/12/23 02:41:56;;;;;;;;;;;10.90;74.30;;;;;;4977787;28;20062;-77
2022/12/23 02:44:27;;;;;;;;;;;11.00;74.50;;;;;;4992868;28;19917;-77
2022/12/23 02:46:59;;;;;;;;;;;10.90;71.90;;;;;;4985585;28;20423;-78
2022/12/23 02:49:29;;;;;;;;;;;10.90;75.20;;;;;;4991374;28;20270;-77
2022/12/23 02:51:56;;;;;;;;;;;10.90;74.10;;;;;;5015372;28;19912;-83
2022/12/23 02:54:29;;;;;;;;;;;11.00;72.40;;;;;;5066832;28;19917;-83
2022/12/23 02:57:10;;;;;;;;;;;10.90;70.30;;;;;;5066848;28;19908;-83
2022/12/23 02:59:57;;;;;;;;;;;10.90;76.60;;;;;;5066790;28;20455;-83
2022/12/23 03:02:45;;;;;;;;;;;10.90;77.70;;;;;;5056964;28;19913;-83
2022/12/23 03:05:33;;;;;;;;;;;10.90;77.10;;;;;;5040121;28;19914;-83
2022/12/23 03:14:17;;;;;;;;;;;10.90;71.30;;;;;;5071582;28;19919;-83
2022/12/23 03:19:50;;;;;;;;;;;10.80;71.90;;;;;;5049833;28;19920;-84
2022/12/23 03:22:37;;;;;;;;;;;10.90;66.00;;;;;;5054733;28;19920;-77
2022/12/23 03:25:21;;;;;;;;;;;10.90;65.20;;;;;;5069791;28;20007;-78
2022/12/23 03:27:53;;;;;;;;;;;10.90;61.00;;;;;;5053584;28;20310;-78
2022/12/23 03:30:19;;;;;;;;;;;10.90;58.30;;;;;;5045885;28;19920;-78
2022/12/23 03:33:03;;;;;;;;;;;10.80;62.50;;;;;;5061823;28;20003;-78
2022/12/23 03:35:41;;;;;;;;;;;10.80;65.70;;;;;;5050737;28;20141;-78
2022/12/23 03:38:21;;;;;;;;;;;10.70;64.10;;;;;;5058828;28;19920;-78
2022/12/23 03:40:50;;;;;;;;;;;10.80;71.40;;;;;;5066488;28;19920;-78
2022/12/23 03:43:21;;;;;;;;;;;10.80;70.00;;;;;;5066536;28;19919;-77
2022/12/23 03:45:49;;;;;;;;;;;10.90;65.70;;;;;;5072231;28;19916;-78
2022/12/23 03:48:15;;;;;;;;;;;10.90;63.30;;;;;;5050768;28;19913;-77
2022/12/23 03:50:41;;;;;;;;;;;10.90;60.00;;;;;;5065476;28;19916;-77
2022/12/23 03:53:09;;;;;;;;;;;10.90;58.20;;;;;;5055390;28;20425;-83
2022/12/23 03:55:37;;;;;;;;;;;10.80;56.70;;;;;;5056014;28;19912;-84
2022/12/23 04:01:11;;;;;;;;;;;10.70;68.20;;;;;;5068911;28;19962;-83
2022/12/23 04:04:03;;;;;;;;;;;10.80;66.40;;;;;;5055894;28;19962;-84
2022/12/23 04:06:41;;;;;;;;;;;10.70;70.50;;;;;;5052627;28;20008;-78
2022/12/23 04:09:10;;;;;;;;;;;10.70;71.20;;;;;;5070749;28;19922;-79
2022/12/23 04:11:45;;;;;;;;;;;10.70;71.40;;;;;;5062176;28;19916;-78
2022/12/23 04:14:27;;;;;;;;;;;10.70;70.30;;;;;;5055110;28;20446;-77
2022/12/23 04:17:03;;;;;;;;;;;10.70;70.30;;;;;;5060497;28;19920;-77
2022/12/23 04:19:28;;;;;;;;;;;10.60;70.20;;;;;;5069282;28;19912;-78
2022/12/23 04:21:57;;;;;;;;;;;10.60;71.60;;;;;;5068394;28;19977;-84
2022/12/23 04:30:47;;;;;;;;;;;10.50;70.00;;;;;;5055494;28;19920;-84
2022/12/23 04:36:27;;;;;;;;;;;10.30;63.20;;;;;;5050148;28;20283;-84
2022/12/23 04:38:52;;;;;;;;;;;10.20;63.20;;;;;;5072676;28;19935;-78
2022/12/23 04:41:39;;;;;;;;;;;10.10;63.40;;;;;;5066829;28;20371;-77
2022/12/23 04:44:09;;;;;;;;;;;10.00;63.30;;;;;;5063296;28;19913;-78
2022/12/23 04:46:34;;;;;;;;;;;10.00;70.50;;;;;;5054277;28;19943;-78
2022/12/23 04:49:03;;;;;;;;;;;10.00;70.90;;;;;;5054845;28;19909;-78
2022/12/23 04:51:51;;;;;;;;;;;10.00;71.70;;;;;;5053773;28;19908;-82
2022/12/23 04:57:21;;;;;;;;;;;10.00;75.70;;;;;;5058209;28;19916;-83
2022/12/23 05:05:57;;;;;;;;;;;10.00;80.00;;;;;;5056066;28;19923;-83
2022/12/23 05:08:51;;;;;;;;;;;10.00;78.90;;;;;;5064840;28;19948;-79
2022/12/23 05:11:51;;;;;;;;;;;9.90;83.60;;;;;;5054216;28;19917;-77
2022/12/23 05:14:27;;;;;;;;;;;9.90;86.60;;;;;;5055350;28;19924;-77
2022/12/23 05:16:52;;;;;;;;;;;10.00;84.30;;;;;;5034620;28;19929;-78
2022/12/23 05:19:27;;;;;;;;;;;10.10;85.80;;;;;;5065963;28;19917;-78
2022/12/23 05:21:57;;;;;;;;;;;10.10;79.20;;;;;;5054706;28;20011;-78
2022/12/23 05:24:23;;;;;;;;;;;10.10;76.60;;;;;;5045715;28;19963;-78
2022/12/23 05:26:51;;;;;;;;;;;10.20;75.70;;;;;;5056358;28;19956;-77
2022/12/23 05:29:18;;;;;;;;;;;10.20;71.90;;;;;;5059308;28;20007;-78
2022/12/23 05:31:44;;;;;;;;;;;10.20;69.30;;;;;;5048431;28;19909;-77
2022/12/23 05:34:09;;;;;;;;;;;10.20;67.10;;;;;;5052345;28;19923;-76
2022/12/23 05:36:51;;;;;;;;;;;10.20;66.10;;;;;;5044060;28;19999;-75
2022/12/23 05:39:21;;;;;;;;;;;10.20;63.80;;;;;;5054380;28;20007;-74
2022/12/23 05:41:47;;;;;;;;;;;10.30;60.20;;;;;;5057545;28;20306;-73
2022/12/23 05:44:12;;;;;;;;;;;10.30;55.60;;;;;;5068960;28;19962;-74
2022/12/23 05:46:38;;;;;;;;;;;10.30;51.10;;;;;;5054086;28;19936;-73
2022/12/23 05:49:03;;;;;;;;;;;10.20;54.50;;;;;;5055819;28;19921;-73
2022/12/23 05:51:29;;;;;;;;;;;10.20;56.30;;;;;;5053744;28;20007;-73
2022/12/23 05:53:55;;;;;;;;;;;10.30;54.80;;;;;;5054094;28;19909;-73
2022/12/23 05:56:21;;;;;;;;;;;10.30;52.80;;;;;;5061419;28;19963;-73
2022/12/23 05:58:46;;;;;;;;;;;10.20;49.30;;;;;;5059238;28;19917;-73
2022/12/23 06:01:12;;;;;;;;;;;10.10;51.60;;;;;;5060486;28;19913;-74
2022/12/23 06:03:37;;;;;;;;;;;10.10;56.80;;;;;;5064078;28;20276;-74
2022/12/23 06:06:03;;;;;;;;;;;10.10;56.30;;;;;;5056702;28;20003;-73
2022/12/23 06:08:29;;;;;;;;;;;10.10;58.50;;;;;;5054325;28;19955;-75
2022/12/23 06:10:54;;;;;;;;;;;10.10;57.40;;;;;;5066830;28;20258;-75
2022/12/23 06:13:21;;;;;;;;;;;10.10;55.50;;;;;;5063231;28;19909;-75
2022/12/23 06:15:51;;;;;;;;;;;10.00;47.60;;;;;;5060316;28;19996;-75
2022/12/23 06:18:16;;;;;;;;;;;9.80;42.90;;;;;;5062661;28;19924;-76
2022/12/23 06:20:46;;;;;;;;;;;9.70;42.90;;;;;;5058819;28;19917;-75
2022/12/23 06:23:11;;;;;;;;;;;9.70;42.60;;;;;;5057731;28;19917;-76
2022/12/23 06:25:39;;;;;;;;;;;9.70;42.80;;;;;;5084440;28;19935;-76
2022/12/23 06:28:15;;;;;;;;;;;9.60;42.50;;;;;;5077106;28;19916;-76
2022/12/23 06:30:40;;;;;;;;;;;9.60;42.50;;;;;;5059127;28;19920;-72
2022/12/23 06:33:06;;;;;;;;;;;9.50;46.50;;;;;;5055801;28;19916;-72
2022/12/23 06:35:32;;;;;;;;;;;9.50;42.60;;;;;;5057513;28;19956;-72
2022/12/23 06:37:57;;;;;;;;;;;9.50;44.90;;;;;;5065886;28;19917;-72
2022/12/23 06:40:23;;;;;;;;;;;9.40;55.00;;;;;;5065152;28;19913;-72
2022/12/23 06:42:49;;;;;;;;;;;9.50;60.20;;;;;;5059411;28;19913;-72
2022/12/23 06:45:14;;;;;;;;;;;9.50;58.60;;;;;;5066823;28;19917;-72
2022/12/23 06:47:40;;;;;;;;;;;9.50;61.10;;;;;;5060282;28;19928;-72
2022/12/23 06:50:06;;;;;;;;;;;9.60;62.90;;;;;;5054057;28;19921;-72
2022/12/23 06:52:31;;;;;;;;;;;9.70;62.90;;;;;;5053755;28;20293;-73
2022/12/23 06:54:57;;;;;;;;;;;9.70;61.30;;;;;;5051095;28;19913;-72
2022/12/23 06:57:22;;;;;;;;;;;9.80;64.00;;;;;;5055765;28;20007;-72
2022/12/23 06:59:48;;;;;;;;;;;9.70;66.20;;;;;;5056486;28;19912;-72
2022/12/23 07:02:14;;;;;;;;;;;9.80;66.00;;;;;;5056146;28;19948;-72
2022/12/23 07:04:39;;;;;;;;;;;9.90;62.60;;;;;;5054387;28;19913;-72
2022/12/23 07:07:05;;;;;;;;;;;9.90;56.80;;;;;;5054245;28;19935;-72
2022/12/23 07:09:30;;;;;;;;;;;10.00;52.20;;;;;;5054919;28;19909;-75
2022/12/23 07:11:56;;;;;;;;;;;10.00;54.30;;;;;;5056032;28;19921;-75
2022/12/23 07:14:22;;;;;;;;;;;10.00;54.60;;;;;;5057219;28;19920;-76
2022/12/23 07:16:57;;;;;;;;;;;10.10;54.60;;;;;;5055600;28;19931;-75
2022/12/23 07:19:26;;;;;;;;;;;10.20;53.00;;;;;;5037542;28;19995;-72
2022/12/23 07:21:57;;;;;;;;;;;10.20;52.10;;;;;;5049780;28;20268;-72
2022/12/23 07:24:23;;;;;;;;;;;10.20;50.40;;;;;;5050161;28;19927;-72
2022/12/23 07:26:49;;;;;;;;;;;10.30;47.50;;;;;;5058819;28;19913;-72
2022/12/23 07:29:15;;;;;;;;;;;10.30;42.20;;;;;;5055940;28;20253;-72
2022/12/23 07:31:40;;;;;;;;;;;10.30;42.10;;;;;;5054642;28;19913;-71
2022/12/23 07:37:09;;;;;;;;;;;10.40;42.20;;;;;;5056457;28;19961;-84
2022/12/23 07:39:51;;;;;;;;;;;10.40;42.10;;;;;;5060057;28;19916;-84
2022/12/23 07:45:19;;;;;;;;;;;10.50;42.30;;;;;;5054689;28;20376;-84
2022/12/23 07:48:03;;;;;;;;;;;10.50;42.20;;;;;;5060870;28;19913;-83
2022/12/23 07:53:31;;;;;;;;;;;10.60;42.60;;;;;;5056079;28;20263;-77
2022/12/23 07:55:57;;;;;;;;;;;10.60;42.30;;;;;;5043735;28;20004;-79
2022/12/23 07:58:23;;;;;;;;;;;10.70;42.50;;;;;;5046238;28;19909;-78
2022/12/23 08:01:21;;;;;;;;;;;10.70;42.50;;;;;;5064775;28;19967;-78
2022/12/23 08:03:47;;;;;;;;;;;10.70;42.70;;;;;;5048190;28;19919;-77
2022/12/23 08:09:27;;;;;;;;;;;10.80;42.60;;;;;;5057901;28;20050;-78
2022/12/23 08:14:56;;;;;;;;;;;10.80;42.80;;;;;;5054820;28;19978;-78
2022/12/23 08:23:28;;;;;;;;;;;11.00;42.90;;;;;;5051132;28;19940;-83
2022/12/23 08:29:03;;;;;;;;;;;11.10;42.90;;;;;;5055801;28;20387;-78
2022/12/23 08:31:45;;;;;;;;;;;11.10;42.80;;;;;;5056634;28;19909;-77
2022/12/23 08:37:14;;;;;;;;;;;11.20;43.10;;;;;;5064715;28;19916;-77
2022/12/23 08:39:39;;;;;;;;;;;11.20;34.50;;;;;;5074677;28;19912;-77
2022/12/23 08:42:09;;;;;;;;;;;11.20;36.00;;;;;;5061356;28;19912;-77
2022/12/23 08:51:04;;;;;;;;;;;11.20;30.40;;;;;;5056863;28;19958;-77
2022/12/23 08:56:34;;;;;;;;;;;11.20;32.30;;;;;;5039766;28;19916;-83
2022/12/23 08:59:16;;;;;;;;;;;11.20;30.20;;;;;;5054207;28;20047;-83
2022/12/23 09:04:51;;;;;;;;;;;11.20;24.90;;;;;;5049137;28;19921;-83
2022/12/23 09:13:57;;;;;;;;;;;11.40;25.60;;;;;;5056192;28;19951;-78
2022/12/23 09:16:33;;;;;;;;;;;11.50;25.00;;;;;;5039594;28;19920;-78
2022/12/23 09:18:59;;;;;;;;;;;11.50;22.30;;;;;;5062728;28;19924;-77
2022/12/23 09:21:39;;;;;;;;;;;11.60;21.20;;;;;;5067456;28;19908;-79
2022/12/23 09:24:21;;;;;;;;;;;11.60;21.40;;;;;;5054335;28;19916;-80
2022/12/23 09:26:57;;;;;;;;;;;11.70;20.80;;;;;;5053173;28;19971;-78
2022/12/23 09:29:57;;;;;;;;;;;11.70;20.00;;;;;;5034894;28;19910;-78
2022/12/23 09:35:25;;;;;;;;;;;11.80;19.70;;;;;;5055438;28;19975;-78
2022/12/23 09:37:57;;;;;;;;;;;11.90;19.50;;;;;;5056741;28;20387;-79
2022/12/23 09:43:59;;;;;;;;;;;12.00;17.50;;;;;;5058602;28;19935;-83
2022/12/23 09:49:28;;;;;;;;;;;12.10;16.00;;;;;;5029125;28;19952;-84
2022/12/23 09:54:56;;;;;;;;;;;12.30;13.60;;;;;;5046671;28;19963;-80
2022/12/23 10:00:26;;;;;;;;;;;12.50;13.40;;;;;;5044277;28;20071;-77
2022/12/23 10:08:59;;;;;;;;;;;12.70;10.10;;;;;;5048776;28;19955;-79
2022/12/23 10:17:37;;;;;;;;;;;12.60;2.80;;;;;;5051226;28;19919;-84
2022/12/23 10:20:04;;;;;;;;;;;12.50;2.40;;;;;;5034383;28;20048;-83
2022/12/23 10:22:51;;;;;;;;;;;12.50;4.00;;;;;;5045751;28;19958;-81
2022/12/23 10:28:20;;;;;;;;;;;12.50;4.80;;;;;;5037496;28;19951;-82
2022/12/23 10:33:59;;;;;;;;;;;12.40;3.30;;;;;;5043634;28;19922;-86
2022/12/23 10:36:32;;;;;;;;;;;12.40;3.50;;;;;;5065265;28;19909;-86
2022/12/23 10:39:14;;;;;;;;;;;12.40;3.80;;;;;;5075738;28;19916;-86
2022/12/23 10:47:55;;;;;;;;;;;12.30;6.10;;;;;;5051927;28;19936;-79
2022/12/23 10:50:44;;;;;;;;;;;12.20;6.00;;;;;;5056752;28;19917;-78
2022/12/23 10:56:13;;;;;;;;;;;12.10;8.50;;;;;;5070934;28;19954;-78
2022/12/23 11:01:47;;;;;;;;;;;12.10;10.00;;;;;;5055939;28;20366;-78
2022/12/23 11:07:24;;;;;;;;;;;12.00;12.80;;;;;;5064612;28;20421;-78
2022/12/23 11:10:16;;;;;;;;;;;11.90;13.90;;;;;;5066164;28;19953;-78
2022/12/23 11:24:54;;;;;;;;;;;12.10;25.60;;;;;;5062795;28;19927;-78
2022/12/23 11:33:25;;;;;;;;;;;11.90;33.20;;;;;;5056171;28;20387;-78
2022/12/23 11:39:10;;;;;;;;;;;12.10;30.00;;;;;;5062374;28;19958;-78
2022/12/23 11:42:05;;;;;;;;;;;12.10;26.60;;;;;;5064002;28;19944;-78
2022/12/23 11:45:05;;;;;;;;;;;12.20;23.80;;;;;;5055896;28;19991;-80
2022/12/23 11:47:59;;;;;;;;;;;12.10;24.10;;;;;;5057057;28;20369;-84
2022/12/23 11:50:36;;;;;;;;;;;12.20;23.60;;;;;;5054840;28;19923;-78
2022/12/23 11:53:01;;;;;;;;;;;12.20;25.90;;;;;;5055709;28;19920;-79
2022/12/23 11:55:31;;;;;;;;;;;12.20;26.20;;;;;;5055629;28;19912;-78
2022/12/23 11:58:23;;;;;;;;;;;12.30;25.40;;;;;;5056717;28;19931;-83
2022/12/23 12:04:06;;;;;;;;;;;12.30;22.00;;;;;;5035934;28;19960;-83
2022/12/23 12:06:42;;;;;;;;;;;12.40;22.40;;;;;;5055529;28;19963;-84
2022/12/23 12:12:35;;;;;;;;;;;12.40;21.60;;;;;;5035870;28;19952;-79
2022/12/23 12:15:22;;;;;;;;;;;12.50;21.40;;;;;;5067732;28;19909;-78
2022/12/23 12:18:07;;;;;;;;;;;12.50;20.80;;;;;;5067730;28;19912;-82
2022/12/23 12:21:05;;;;;;;;;;;12.50;21.10;;;;;;5055144;28;20019;-83
2022/12/23 12:23:47;;;;;;;;;;;12.50;20.40;;;;;;5054842;28;19912;-81
2022/12/23 12:35:29;;;;;;;;;;;12.50;19.40;;;;;;5035610;28;19976;-84
2022/12/23 12:41:16;;;;;;;;;;;12.50;21.50;;;;;;5055355;28;19916;-87
2022/12/23 12:52:54;;;;;;;;;;;12.30;27.30;;;;;;5042984;28;19916;-81
2022/12/23 12:55:30;;;;;;;;;;;12.30;37.30;;;;;;5053772;28;19912;-82
2022/12/23 13:10:15;;;;;;;;;;;12.40;36.10;;;;;;5045821;28;19966;-86
2022/12/23 13:19:00;;;;;;;;;;;12.50;34.00;;;;;;5054265;28;19920;-86
2022/12/23 13:24:48;;;;;;;;;;;12.60;32.70;;;;;;5049700;28;20025;-86
2022/12/23 13:31:23;;;;;;;;;;;12.50;27.10;;;;;;5112477;27;20284;-80
2022/12/23 13:37:15;;;;;;;;;;;12.70;29.40;;;;;;5110916;28;19915;-85
2022/12/23 13:42:47;;;;;;;;;;;12.60;28.50;;;;;;5084920;28;19958;-87
2022/12/23 13:57:59;;;;;;;;;;;12.60;27.80;;;;;;5088548;28;19951;-85
2022/12/23 14:06:31;;;;;;;;;;;12.50;38.30;;;;;;5098186;28;19957;-86
2022/12/23 14:09:00;;;;;;;;;;;12.50;44.20;;;;;;5104547;28;19938;-87
2022/12/23 14:14:29;;;;;;;;;;;12.50;44.10;;;;;;5089383;28;19915;-75
2022/12/23 14:17:19;;;;;;;;;;;12.50;44.00;;;;;;5102919;28;19916;-77
2022/12/23 14:20:04;;;;;;;;;;;12.50;44.10;;;;;;5086714;28;19943;-77
2022/12/23 14:22:35;;;;;;;;;;;12.50;44.10;;;;;;5081201;28;20368;-80
2022/12/23 14:25:29;;;;;;;;;;;12.50;44.10;;;;;;5102989;28;19958;-79
2022/12/23 14:28:17;;;;;;;;;;;12.50;44.30;;;;;;5104209;28;19912;-79
2022/12/23 14:31:17;;;;;;;;;;;12.40;44.00;;;;;;5090654;28;19920;-82
2022/12/23 14:34:05;;;;;;;;;;;12.40;44.00;;;;;;5087570;28;19960;-79
2022/12/23 14:36:31;;;;;;;;;;;12.50;44.10;;;;;;5103580;28;20272;-80
2022/12/23 14:39:32;;;;;;;;;;;12.50;44.20;;;;;;5090564;28;19987;-79
2022/12/23 14:41:59;;;;;;;;;;;12.40;48.90;;;;;;5041016;28;20365;-79
2022/12/23 14:44:35;;;;;;;;;;;12.40;59.60;;;;;;5050941;28;19988;-81
2022/12/23 14:53:25;;;;;;;;;;;12.50;86.30;;;;;;5055093;28;19919;-84
2022/12/23 14:56:06;;;;;;;;;;;12.40;85.50;;;;;;5038417;28;20646;-86
2022/12/23 14:59:00;;;;;;;;;;;12.40;91.00;;;;;;5038811;28;19912;-86
2022/12/23 15:01:48;;;;;;;;;;;12.30;94.70;;;;;;5036432;28;19917;-80
2022/12/23 15:04:20;;;;;;;;;;;12.30;98.70;;;;;;5024534;28;19909;-80
2022/12/23 15:10:18;;;;;;;;;;;12.40;99.90;;;;;;5037292;28;19939;-81
2022/12/23 15:12:51;;;;;;;;;;;12.40;99.90;;;;;;5017989;28;19909;-81
2022/12/23 15:18:30;;;;;;;;;;;12.40;99.90;;;;;;5077729;28;20425;-86
2022/12/23 15:21:30;;;;;;;;;;;12.40;99.90;;;;;;5129418;27;20374;-80
2022/12/23 15:30:31;;;;;;;;;;;12.50;99.90;;;;;;5074624;28;19927;-91
2022/12/23 15:33:30;;;;;;;;;;;12.40;96.70;;;;;;5082272;28;19908;-87
2022/12/23 15:36:30;;;;;;;;;;;12.40;88.50;;;;;;5072290;28;19959;-86
2022/12/23 15:39:17;;;;;;;;;;;12.20;76.00;;;;;;5073361;28;19912;-86
2022/12/23 15:41:48;;;;;;;;;;;12.10;84.50;;;;;;5090883;28;19912;-82
2022/12/23 15:47:30;;;;;;;;;;;12.10;81.40;;;;;;5068653;28;19930;-80
2022/12/23 15:50:30;;;;;;;;;;;12.20;83.80;;;;;;5086511;28;19916;-87
2022/12/23 15:53:24;;;;;;;;;;;12.10;85.80;;;;;;5053925;28;19912;-86
2022/12/23 15:58:54;;;;;;;;;;;12.30;95.80;;;;;;5089355;28;19946;-84
2022/12/23 16:01:42;;;;;;;;;;;12.30;96.30;;;;;;5077982;28;19915;-83
2022/12/23 16:04:17;;;;;;;;;;;12.30;98.70;;;;;;5082705;28;19961;-81
2022/12/23 16:06:54;;;;;;;;;;;12.30;98.50;;;;;;5091756;28;19921;-82
2022/12/23 16:09:20;;;;;;;;;;;12.40;97.50;;;;;;5070223;28;19912;-90
2022/12/23 16:12:12;;;;;;;;;;;12.40;97.20;;;;;;5074419;28;19920;-90
2022/12/23 16:18:00;;;;;;;;;;;12.40;99.60;;;;;;5086341;28;20034;-82
2022/12/23 16:20:26;;;;;;;;;;;12.40;99.90;;;;;;5077736;28;19990;-75
2022/12/23 16:22:59;;;;;;;;;;;12.30;99.90;;;;;;5074759;28;19908;-77
2022/12/23 16:25:30;;;;;;;;;;;12.40;99.90;;;;;;5083400;28;19957;-74
2022/12/23 16:28:06;;;;;;;;;;;12.40;99.90;;;;;;5079867;28;19917;-74
2022/12/23 16:30:33;;;;;;;;;;;12.40;99.90;;;;;;5094910;28;20355;-74
2022/12/23 16:33:18;;;;;;;;;;;12.50;99.90;;;;;;5082376;28;19908;-74
2022/12/23 16:35:43;;;;;;;;;;;12.50;99.90;;;;;;5076235;28;19940;-74
2022/12/23 16:38:14;;;;;;;;;;;12.50;99.90;;;;;;5071823;28;19951;-73
2022/12/23 16:40:43;;;;;;;;;;;12.50;99.90;;;;;;5054643;28;19916;-74
2022/12/23 16:43:19;;;;;;;;;;;12.60;99.90;;;;;;5064977;28;19920;-74
2022/12/23 16:45:50;;;;;;;;;;;12.60;99.90;;;;;;5093607;28;19908;-75
2022/12/23 16:48:19;;;;;;;;;;;12.60;99.90;;;;;;5082142;28;19954;-75
2022/12/23 16:50:45;;;;;;;;;;;12.70;99.90;;;;;;5074178;28;20391;-76
2022/12/23 16:53:24;;;;;;;;;;;12.60;99.90;;;;;;5065486;28;19913;-78
2022/12/23 16:56:01;;;;;;;;;;;12.50;99.90;;;;;;5081776;28;19912;-78
2022/12/23 16:58:36;;;;;;;;;;;12.60;99.90;;;;;;5114930;27;19920;-79
2022/12/23 17:01:11;;;;;;;;;;;12.60;99.90;;;;;;5085017;28;19908;-77
2022/12/23 17:03:48;;;;;;;;;;;12.50;99.90;;;;;;5077844;28;19919;-77
2022/12/23 17:06:30;;;;;;;;;;;12.60;99.90;;;;;;5073998;28;20352;-76
2022/12/23 17:09:00;;;;;;;;;;;12.50;99.90;;;;;;5072221;28;19912;-77
2022/12/23 17:11:30;;;;;;;;;;;12.60;99.90;;;;;;5092912;28;19962;-77
2022/12/23 17:14:00;;;;;;;;;;;12.60;99.90;;;;;;5075435;28;19916;-77
2022/12/23 17:16:26;;;;;;;;;;;12.70;99.90;;;;;;5101588;28;19921;-74
2022/12/23 17:18:52;;;;;;;;;;;12.70;99.90;;;;;;5079208;28;19919;-75
2022/12/23 17:21:37;;;;;;;4.70;2.77;;;12.80;99.90;;;;;;5084582;28;20390;-75
2022/12/23 17:24:10;;;;;;;6.87;3.07;;;12.70;99.90;;;;;;5072264;28;20758;-74
2022/12/23 17:26:36;;;;;;;4.43;2.97;;;12.80;99.90;;;;;;5072418;28;20920;-74
2022/12/23 17:29:03;;;;;;;2.20;2.00;;;12.80;99.90;;;;;;5072904;28;20455;-76
2022/12/23 17:31:33;;;;;;;3.03;1.80;;;12.80;99.90;;;;;;5074088;28;20368;-74
2022/12/23 17:34:00;;;;;;;3.57;1.80;;;12.70;99.90;;;;;;5073763;28;20497;-74
2022/12/23 17:36:30;;;;;;;2.90;2.63;;;12.70;99.90;;;;;;5073553;28;20421;-74
2022/12/23 17:39:00;;;;;;;3.20;2.90;;;12.60;99.90;;;;;;5071514;28;20404;-75
2022/12/23 17:41:32;;;;;;;3.27;2.97;;;12.50;99.90;;;;;;5073548;28;20874;-75
2022/12/23 17:43:58;;;;;;;3.13;2.47;;;12.50;99.90;;;;;;5069856;28;20794;-75
2022/12/23 17:46:25;;;;;;;3.37;2.50;;;12.50;99.90;;;;;;5072761;28;20420;-75
2022/12/23 17:48:52;;;;;;;6.20;2.67;;;12.40;99.90;;;;;;5080281;28;20474;-74
2022/12/23 17:51:20;;;;;;;5.70;2.73;;;12.30;99.90;;;;;;5073337;28;20501;-74
2022/12/23 17:53:47;;;;;;;2.70;2.50;;;12.30;99.90;;;;;;5070981;28;20434;-74
2022/12/23 17:56:16;;;;;;;2.40;2.20;;;12.30;99.90;;;;;;5065719;28;20432;-74
2022/12/23 17:58:43;;;;;;;2.47;2.27;;;12.20;99.90;;;;;;5076091;28;20423;-74
2022/12/23 18:01:30;;;;;;;2.53;2.33;;;12.20;99.90;;;;;;5073711;28;20433;-74
2022/12/23 18:03:57;;;;;;;2.63;2.43;;;12.10;99.90;;;;;;5059874;28;20425;-74
2022/12/23 18:06:26;;;;;;;2.90;2.63;;;12.10;99.90;;;;;;5071115;28;20417;-73
2022/12/23 18:08:53;;;;;;;3.00;2.13;;;12.00;99.90;;;;;;5064533;28;20462;-74
2022/12/23 18:11:40;;;;;;;3.87;2.33;;;11.90;99.90;;;;;;5074545;28;20460;-74
2022/12/23 18:14:30;;;;;;;2.10;1.90;;;11.90;99.90;;;;;;5081394;28;20424;-75
2022/12/23 18:17:14;;;;;;;1.60;1.50;;;11.90;99.90;;;;;;5083817;28;20922;-74
2022/12/23 18:19:54;;;;;;;2.90;1.50;;;11.80;99.90;;;;;;5076985;28;20784;-75
2022/12/23 18:22:23;;;;;;;1.80;1.70;;;11.70;99.90;;;;;;5076572;28;20363;-75
2022/12/23 18:25:00;;;;;;;2.23;2.03;;;11.70;99.90;;;;;;5089809;28;20420;-77
2022/12/23 18:27:30;;;;;;;1.50;1.40;;;11.70;99.90;;;;;;5086296;28;20432;-77
2022/12/23 18:29:56;;;;;;;2.10;1.67;;;11.70;99.90;;;;;;5089257;28;20479;-76
2022/12/23 18:32:26;;;;;;;1.57;1.43;;;11.60;99.90;;;;;;5075107;28;20421;-78
2022/12/23 18:34:54;;;;;;;1.53;1.03;;;11.70;99.90;;;;;;5085285;28;20177;-76
2022/12/23 18:37:36;;;;;;;1.50;1.40;;;11.60;99.90;;;;;;5082963;28;20413;-76
2022/12/23 18:40:13;;;;;;;2.90;1.30;;;11.60;99.90;;;;;;5083986;28;20967;-76
2022/12/23 18:42:55;;;;;;;2.73;1.00;;;11.60;99.90;;;;;;5076239;28;20770;-76
2022/12/23 18:45:40;;;;;;;1.47;0.90;;;11.50;99.90;;;;;;5077835;28;20432;-75
2022/12/23 18:48:19;;;;;;;1.60;1.10;;;11.50;99.90;;;;;;5081264;28;20501;-76
2022/12/23 18:50:54;;;;;;;2.40;1.00;;;11.50;99.90;;;;;;5089769;28;20429;-76
2022/12/23 18:53:22;;;;;;;1.40;1.13;;;11.40;99.90;;;;;;5075951;28;20433;-76
2022/12/23 18:56:00;;;;;;;1.80;1.10;;;11.40;99.90;;;;;;5075934;28;20879;-76
2022/12/23 18:58:37;;;;;;;4.03;2.03;;;11.40;99.90;;;;;;5078691;28;20407;-76
2022/12/23 19:01:11;;;;;;;1.97;1.57;;;11.40;99.90;;;;;;5094391;28;20926;-76
2022/12/23 19:03:44;;;;;;;1.17;1.00;;;11.30;99.90;;;;;;5091709;28;20408;-76
2022/12/23 19:06:12;;;;;;;1.47;0.80;;;11.30;99.90;;;;;;5106001;28;20509;-77
2022/12/23 19:08:39;;;;;;;1.10;0.80;;;11.30;99.90;;;;;;5075648;28;20789;-76
2022/12/23 19:11:19;;;;;;;1.00;1.00;;;11.30;99.90;;;;;;5072883;28;20514;-77
2022/12/23 19:13:54;;;;;;;2.20;1.20;;;11.30;99.90;;;;;;5073405;28;20774;-77
2022/12/23 19:16:24;;;;;;;1.93;1.10;;;11.20;99.90;;;;;;5058570;28;20456;-75
2022/12/23 19:18:50;;;;;;;4.00;1.50;;;11.20;99.90;;;;;;5075485;28;20439;-77
2022/12/23 19:21:17;;;;;;;8.83;1.70;;;11.20;99.90;;;;;;5076982;28;20531;-72
2022/12/23 19:23:43;;;;;;;2.53;1.50;;;11.20;97.80;;;;;;5074596;28;20536;-73
2022/12/23 19:26:19;;;;;;;7.30;1.93;;;11.20;90.70;;;;;;5076201;28;20416;-76
2022/12/23 19:29:06;;;;;;;2.37;1.20;;;11.10;77.10;;;;;;5089510;28;20419;-81
2022/12/23 19:31:43;;;;;;;6.13;1.33;;;11.10;61.20;;;;;;5106188;27;20451;-81
2022/12/23 19:37:31;;;;;;;10.50;2.00;;;11.10;42.90;;;;;;5075263;28;20397;-83
2022/12/23 19:40:00;;;;;;;5.73;1.50;;;11.10;42.80;;;;;;5074900;28;20410;-78
2022/12/23 19:42:32;;;;;;;11.73;1.60;;;11.10;42.90;;;;;;5082784;28;20427;-81
2022/12/23 19:44:59;;;;;;;6.60;1.50;;;11.10;42.80;;;;;;5094132;28;20381;-79
2022/12/23 19:47:37;;;;;;;6.70;1.63;;;11.20;43.00;;;;;;5077178;28;20409;-79
2022/12/23 19:50:21;;;;;;;11.60;1.60;;;11.20;42.90;;;;;;5080028;28;20504;-81
2022/12/23 19:53:18;;;;;;;12.10;2.00;;;11.20;33.60;;;;;;5078338;28;20434;-82
2022/12/23 19:56:06;;;;;;;7.80;2.03;;;11.30;31.00;;;;;;5075920;28;20424;-81
2022/12/23 19:58:39;;;;;;;13.13;1.63;;;11.30;27.20;;;;;;5081565;28;20763;-80
2022/12/23 20:01:14;;;;;;;12.00;2.53;;;11.40;25.90;;;;;;5075965;28;20451;-80